Portada
METAR-TAF:

METAR-TAF

Aeroports :

Ann Arbor, Michigan, Estats Units d'Amèrica

latitud: 42-13-26N, longitud: 083-44-24W, altitud: 255 m

Observació

L'informe es va fer fa 12 minuts, a les 07:06 UTC
Vent 13 kt del Oest
Temperatura 7°C
Humitat 70%
Pressió 1009 hPa
Visibilitat: 16.1 km
Cel ennuvolat a una alçada de 2800 ft
Cel cobert a una alçada de 3800 ft

METAR: KARB 300706Z AUTO 27013KT 10SM BKN028 OVC038 07/02 A2979 RMK AO2 T00670017

Hora: 03:18 (07:18 UTC)


TAF: manca

Observacions i pronòstics meteorològics de més de 4000 aeroports (METAR i TAF).

Les estacions disponibles són els punts grocs i vermells al mapa.

Posi el ratolí al punt desitjat per veure el nom de l'estació.

Feu clic per veure les observacions i els pronòstics meteorològics.

Per canviar el mapa: feu clic els botons verds amb una creu de color negre per apropar; al botó verd amb un guió per allunyar la imatge; o en les fletxes verdes per a mapes adjacents.


METAR-TAF: